Time;durP1;ratioP1;P1;durP2;ratioP2;P2;SDS_P1;SDS_P2;PMS_P1;PMS_P2;Temp;Humidity;BMP_temperature;BMP_pressure;BME280_temperature;BME280_humidity;BME280_pressure;Samples;Min_cycle;Max_cycle;Signal;HPM_P1;HPM_P2
2023/02/26 00:01:24;;;;;;;0.30;0.30;;;;;;;18.27;29.55;93935.84;5045082;28;21045;-65
2023/02/26 00:03:53;;;;;;;0.20;0.20;;;;;;;18.50;29.30;93933.63;5048381;28;20534;-65
2023/02/26 00:06:20;;;;;;;0.47;0.47;;;;;;;18.64;29.00;93939.41;5050024;28;20924;-63
2023/02/26 00:08:47;;;;;;;1.50;0.77;;;;;;;18.14;30.02;93931.59;5049679;28;20466;-62
2023/02/26 00:11:14;;;;;;;2.80;0.80;;;;;;;18.04;29.84;93926.69;5049097;28;20490;-68
2023/02/26 00:13:43;;;;;;;0.63;0.63;;;;;;;18.54;29.08;93924.69;5050850;28;20435;-62
2023/02/26 00:16:33;;;;;;;0.00;0.00;;;;;;;19.01;28.29;93917.91;5051509;28;21021;-62
2023/02/26 00:19:03;;;;;;;0.73;0.67;;;;;;;18.84;29.15;93918.13;5051678;28;20471;-66
2023/02/26 00:21:31;;;;;;;0.00;0.00;;;;;;;18.78;28.83;93914.13;5051678;28;20441;-65
2023/02/26 00:23:59;;;;;;;0.40;0.40;;;;;;;18.33;28.96;93917.84;5051754;28;20439;-62
2023/02/26 00:26:28;;;;;;;0.67;0.67;;;;;;;18.44;29.34;93914.50;5050842;28;20573;-63
2023/02/26 00:28:56;;;;;;;1.60;0.93;;;;;;;18.73;29.32;93917.00;5051529;28;20439;-64
2023/02/26 00:31:23;;;;;;;0.10;0.10;;;;;;;18.81;28.92;93908.16;5049503;28;20573;-66
2023/02/26 00:33:55;;;;;;;0.63;0.63;;;;;;;19.26;28.54;93912.59;5049605;28;20522;-62
2023/02/26 00:36:23;;;;;;;0.13;0.13;;;;;;;18.30;29.72;93924.59;5050452;28;20831;-64
2023/02/26 00:39:18;;;;;;;6.83;1.20;;;;;;;18.34;29.41;93914.13;5051984;28;20867;-63
2023/02/26 00:41:46;;;;;;;0.83;0.37;;;;;;;18.96;29.19;93901.41;5049849;28;20443;-63
2023/02/26 00:44:13;;;;;;;0.53;0.53;;;;;;;19.09;28.69;93901.09;5063037;28;20480;-67
2023/02/26 00:46:48;;;;;;;12.73;2.67;;;;;;;18.42;29.32;93894.69;5053278;28;20439;-61
2023/02/26 00:49:28;;;;;;;0.10;0.10;;;;;;;18.64;29.29;93892.44;5052151;28;20442;-63
2023/02/26 00:52:00;;;;;;;0.60;0.60;;;;;;;19.10;28.89;93896.56;5055131;28;20521;-65
2023/02/26 00:54:29;;;;;;;7.90;1.50;;;;;;;19.25;28.58;93889.81;5062195;28;20457;-62
2023/02/26 00:56:58;;;;;;;1.33;1.23;;;;;;;19.08;28.90;93880.97;5051895;28;20497;-63
2023/02/26 00:59:25;;;;;;;0.30;0.30;;;;;;;18.80;29.12;93879.28;5051715;28;20504;-65
2023/02/26 01:01:53;;;;;;;16.13;0.97;;;;;;;18.41;29.36;93877.22;5050424;28;20558;-66
2023/02/26 01:04:22;;;;;;;0.20;0.20;;;;;;;18.73;29.04;93894.97;5049833;28;20962;-66
2023/02/26 01:06:53;;;;;;;0.57;0.57;;;;;;;18.68;28.91;93888.03;5049956;28;20992;-62
2023/02/26 01:09:27;;;;;;;0.17;0.17;;;;;;;18.93;28.79;93876.31;5050391;28;20989;-62
2023/02/26 01:11:59;;;;;;;0.27;0.27;;;;;;;19.09;28.85;93863.94;5050752;28;20482;-65
2023/02/26 01:14:27;;;;;;;0.17;0.17;;;;;;;18.75;28.85;93861.72;5049704;28;20447;-64
2023/02/26 01:17:32;;;;;;;1.03;0.93;;;;;;;18.81;28.22;93860.38;5048221;28;20443;-65
2023/02/26 01:20:19;;;;;;;0.77;0.73;;;;;;;18.86;28.11;93867.34;5048922;28;20462;-62
2023/02/26 01:23:11;;;;;;;0.10;0.10;;;;;;;18.56;28.33;93848.19;5049702;28;20443;-65
2023/02/26 01:25:48;;;;;;;0.03;0.03;;;;;;;18.82;27.99;93840.72;5049608;28;20439;-62
2023/02/26 01:28:16;;;;;;;2.20;1.37;;;;;;;18.93;27.58;93828.53;5051088;28;20446;-64
2023/02/26 01:30:44;;;;;;;0.50;0.50;;;;;;;19.08;27.61;93837.72;5052012;28;20486;-64
2023/02/26 01:33:28;;;;;;;10.53;1.90;;;;;;;18.88;27.35;93828.78;5051548;28;20435;-63
2023/02/26 01:36:05;;;;;;;0.00;0.00;;;;;;;18.62;27.87;93803.66;5051158;28;20466;-60
2023/02/26 01:38:42;;;;;;;0.00;0.00;;;;;;;18.99;27.75;93823.78;5049881;28;20443;-65
2023/02/26 01:41:36;;;;;;;4.80;2.30;;;;;;;19.16;27.49;93789.78;5050847;28;20435;-65
2023/02/26 01:44:06;;;;;;;1.00;1.00;;;;;;;18.89;27.69;93800.31;5049889;28;20493;-64
2023/02/26 01:46:42;;;;;;;2.10;1.40;;;;;;;18.63;28.11;93805.97;5050582;28;20463;-64
2023/02/26 01:49:14;;;;;;;1.80;1.30;;;;;;;18.55;27.59;93801.56;5051041;28;20435;-65
2023/02/26 01:51:55;;;;;;;0.37;0.37;;;;;;;18.67;27.66;93801.56;5050270;28;20494;-64
2023/02/26 01:54:27;;;;;;;8.90;1.00;;;;;;;18.77;27.74;93801.13;5049484;28;20450;-62
2023/02/26 01:57:20;;;;;;;0.20;0.20;;;;;;;19.13;27.58;93792.34;5051753;28;20446;-63
2023/02/26 01:59:50;;;;;;;1.43;1.33;;;;;;;18.75;27.33;93821.13;5054188;28;20450;-64
2023/02/26 02:02:22;;;;;;;2.87;2.37;;;;;;;18.71;27.19;93805.09;5050409;28;20446;-63
2023/02/26 02:04:50;;;;;;;0.10;0.10;;;;;;;18.15;27.56;93803.25;5050881;28;20782;-63
2023/02/26 02:07:17;;;;;;;0.17;0.17;;;;;;;18.83;26.97;93788.41;5050377;28;20454;-65
2023/02/26 02:09:46;;;;;;;0.63;0.60;;;;;;;18.94;27.22;93795.56;5049626;28;20470;-64
2023/02/26 02:12:28;;;;;;;4.70;1.17;;;;;;;18.67;27.42;93817.47;5050272;28;20466;-66
2023/02/26 02:15:10;;;;;;;0.97;0.43;;;;;;;18.80;27.12;93810.28;5050655;28;20985;-64
2023/02/26 02:18:09;;;;;;;0.67;0.67;;;;;;;18.88;27.50;93801.44;5050027;28;20442;-65
2023/02/26 02:20:51;;;;;;;0.40;0.40;;;;;;;18.51;27.54;93784.75;5048216;28;20471;-64
2023/02/26 02:23:43;;;;;;;0.97;0.93;;;;;;;18.46;27.72;93800.09;5050428;28;20764;-63
2023/02/26 02:26:43;;;;;;;0.10;0.10;;;;;;;18.71;27.17;93791.84;5048947;28;20439;-65
2023/02/26 02:29:30;;;;;;;13.37;2.03;;;;;;;18.65;27.02;93785.19;5050166;28;20522;-63
2023/02/26 02:32:09;;;;;;;8.10;1.20;;;;;;;18.24;27.15;93801.28;5049315;28;20938;-63
2023/02/26 02:34:45;;;;;;;0.50;0.50;;;;;;;18.56;26.85;93794.34;5058606;28;20912;-63
2023/02/26 02:37:34;;;;;;;10.20;1.27;;;;;;;18.65;26.21;93782.53;5047454;28;20450;-62
2023/02/26 02:40:24;;;;;;;11.80;1.77;;;;;;;18.82;26.33;93782.31;5049673;28;20968;-64
2023/02/26 02:42:54;;;;;;;0.20;0.20;;;;;;;19.02;26.31;93781.41;5048515;28;20443;-63
2023/02/26 02:45:57;;;;;;;0.10;0.10;;;;;;;18.76;26.24;93809.41;5047910;28;20439;-63
2023/02/26 02:48:31;;;;;;;1.60;0.77;;;;;;;19.08;25.89;93793.34;5056631;28;20450;-62
2023/02/26 02:51:25;;;;;;;0.70;0.70;;;;;;;18.92;25.86;93808.41;5045984;28;20473;-64
2023/02/26 02:53:58;;;;;;;0.30;0.30;;;;;;;18.78;26.23;93823.88;5049207;28;20431;-65
2023/02/26 02:56:33;;;;;;;0.83;0.80;;;;;;;18.77;25.93;93827.66;5049163;28;20803;-62
2023/02/26 02:59:09;;;;;;;0.20;0.20;;;;;;;18.38;25.90;93801.72;5049399;28;20946;-63
2023/02/26 03:01:39;;;;;;;5.43;1.50;;;;;;;18.56;26.46;93789.84;5045735;28;20969;-65
2023/02/26 03:04:13;;;;;;;0.10;0.10;;;;;;;18.52;26.32;93798.78;5048830;28;20431;-62
2023/02/26 03:06:41;;;;;;;0.20;0.20;;;;;;;19.03;25.93;93801.53;5047531;28;20521;-63
2023/02/26 03:09:09;;;;;;;0.10;0.10;;;;;;;18.56;25.52;93819.00;5047983;28;20450;-63
2023/02/26 03:11:40;;;;;;;0.10;0.10;;;;;;;17.84;26.87;93826.78;5048759;28;20485;-64
2023/02/26 03:14:09;;;;;;;0.03;0.03;;;;;;;17.96;26.59;93824.16;5048946;28;20450;-63
2023/02/26 03:17:05;;;;;;;0.20;0.20;;;;;;;18.81;25.69;93802.00;5048131;28;20451;-65
2023/02/26 03:19:47;;;;;;;0.20;0.20;;;;;;;18.96;25.68;93809.28;5047894;28;20478;-63
2023/02/26 03:22:33;;;;;;;6.27;2.03;;;;;;;18.81;25.62;93780.75;5047320;28;20451;-64
2023/02/26 03:25:00;;;;;;;13.80;0.97;;;;;;;18.63;25.30;93813.19;5047903;28;20454;-64
2023/02/26 03:27:36;;;;;;;0.00;0.00;;;;;;;18.64;24.96;93807.53;5046227;28;20531;-62
2023/02/26 03:30:10;;;;;;;0.20;0.20;;;;;;;18.68;24.75;93808.44;5052905;28;20482;-63
2023/02/26 03:33:04;;;;;;;0.13;0.10;;;;;;;19.23;25.64;93797.97;5046638;28;20496;-60
2023/02/26 03:35:43;;;;;;;5.17;1.33;;;;;;;18.69;25.90;93809.97;5047077;28;20440;-70
2023/02/26 03:38:16;;;;;;;0.40;0.40;;;;;;;18.86;25.27;93820.38;5049379;28;20455;-66
2023/02/26 03:40:49;;;;;;;0.10;0.10;;;;;;;18.86;25.37;93804.44;5051233;28;21228;-62
2023/02/26 03:43:44;;;;;;;0.67;0.67;;;;;;;18.61;26.64;93802.88;5051682;28;20482;-63
2023/02/26 03:46:16;;;;;;;0.23;0.23;;;;;;;18.58;25.86;93781.53;5051453;28;20974;-63
2023/02/26 03:48:47;;;;;;;0.10;0.10;;;;;;;18.63;25.74;93805.22;5051202;28;20564;-63
2023/02/26 03:51:14;;;;;;;0.23;0.23;;;;;;;18.82;25.27;93797.47;5052353;28;20474;-64
2023/02/26 03:54:18;;;;;;;0.83;0.80;;;;;;;18.91;25.24;93763.63;5051679;28;20482;-63
2023/02/26 03:56:53;;;;;;;0.20;0.20;;;;;;;18.84;25.29;93796.03;5050561;28;20467;-61
2023/02/26 03:59:38;;;;;;;1.33;0.83;;;;;;;18.94;25.30;93790.25;5052584;28;20450;-65
2023/02/26 04:02:37;;;;;;;0.17;0.17;;;;;;;19.02;25.52;93776.09;5051253;28;21108;-64
2023/02/26 04:05:20;;;;;;;1.00;0.93;;;;;;;18.97;25.69;93784.31;5051124;28;20439;-61
2023/02/26 04:07:48;;;;;;;2.10;1.27;;;;;;;18.78;25.89;93776.13;5050171;28;20439;-62
2023/02/26 04:10:20;;;;;;;0.60;0.60;;;;;;;18.82;25.74;93795.59;5050303;28;20435;-66
2023/02/26 04:12:49;;;;;;;0.17;0.17;;;;;;;18.18;26.07;93794.63;5050155;28;21142;-61
2023/02/26 04:15:16;;;;;;;9.80;1.50;;;;;;;18.61;25.68;93765.72;5050131;28;20461;-66
2023/02/26 04:17:42;;;;;;;2.43;2.20;;;;;;;18.44;26.55;93771.28;5051281;28;20526;-62
2023/02/26 04:20:10;;;;;;;2.40;1.50;;;;;;;18.16;26.49;93775.59;5049442;28;20477;-64
2023/02/26 04:22:38;;;;;;;0.00;0.00;;;;;;;18.48;25.85;93772.16;5050087;28;20435;-63
2023/02/26 04:25:05;;;;;;;1.03;0.87;;;;;;;18.51;25.73;93781.31;5050178;28;20485;-61
2023/02/26 04:27:32;;;;;;;0.37;0.37;;;;;;;18.63;25.49;93768.81;5049060;28;20977;-63
2023/02/26 04:30:00;;;;;;;0.33;0.33;;;;;;;18.75;25.14;93763.53;5050316;28;20445;-60
2023/02/26 04:32:28;;;;;;;3.40;1.27;;;;;;;18.83;25.38;93773.25;5050771;28;20489;-64
2023/02/26 04:34:56;;;;;;;0.97;0.93;;;;;;;18.78;25.37;93754.09;5052748;28;20504;-62
2023/02/26 04:37:23;;;;;;;3.13;1.33;;;;;;;18.62;25.70;93739.97;5050721;28;20443;-61
2023/02/26 04:39:50;;;;;;;5.80;1.80;;;;;;;18.71;25.15;93738.75;5051104;28;20500;-61
2023/02/26 04:42:17;;;;;;;0.90;0.60;;;;;;;18.49;25.90;93725.16;5050607;28;20448;-61
2023/02/26 04:44:44;;;;;;;0.20;0.20;;;;;;;18.50;26.06;93727.50;5051240;28;20451;-62
2023/02/26 04:47:12;;;;;;;2.10;1.50;;;;;;;17.60;26.95;93747.97;5049343;28;20516;-60
2023/02/26 04:49:39;;;;;;;0.10;0.10;;;;;;;18.20;26.42;93739.38;5049745;28;20457;-62
2023/02/26 04:52:06;;;;;;;1.63;1.30;;;;;;;18.25;26.37;93736.50;5048398;28;20495;-62
2023/02/26 04:54:33;;;;;;;0.30;0.30;;;;;;;18.29;26.14;93729.44;5049065;28;20474;-66
2023/02/26 04:57:00;;;;;;;1.03;1.03;;;;;;;18.43;26.08;93721.97;5049593;28;20439;-62
2023/02/26 04:59:27;;;;;;;0.70;0.70;;;;;;;18.36;26.28;93737.63;5050482;28;20812;-62
2023/02/26 05:01:55;;;;;;;0.93;0.77;;;;;;;18.53;25.99;93747.28;5050191;28;20451;-63
2023/02/26 05:04:22;;;;;;;2.00;1.17;;;;;;;18.26;25.95;93754.00;5051476;28;20439;-63
2023/02/26 05:06:53;;;;;;;0.10;0.10;;;;;;;17.93;26.61;93748.75;5050269;28;20485;-64
2023/02/26 05:09:20;;;;;;;0.30;0.30;;;;;;;18.38;26.27;93724.03;5050489;28;20482;-62
2023/02/26 05:11:47;;;;;;;4.53;1.27;;;;;;;18.34;26.04;93745.13;5049840;28;20483;-65
2023/02/26 05:14:16;;;;;;;0.60;0.60;;;;;;;18.56;25.82;93736.78;5049961;28;21010;-60
2023/02/26 05:16:46;;;;;;;0.10;0.10;;;;;;;18.30;26.29;93715.09;5049935;28;20525;-67
2023/02/26 05:19:13;;;;;;;0.27;0.10;;;;;;;18.47;26.67;93730.03;5049880;28;20484;-63
2023/02/26 05:21:39;;;;;;;0.13;0.13;;;;;;;18.28;26.88;93730.56;5049461;28;20683;-64
2023/02/26 05:24:06;;;;;;;0.07;0.07;;;;;;;18.45;27.06;93714.44;5049512;28;20432;-63
2023/02/26 05:26:33;;;;;;;0.30;0.30;;;;;;;18.34;26.70;93723.91;5048912;28;20497;-65
2023/02/26 05:29:01;;;;;;;0.83;0.77;;;;;;;18.23;27.00;93720.16;5049832;28;20435;-63
2023/02/26 05:31:28;;;;;;;0.97;0.87;;;;;;;17.88;27.66;93738.34;5048090;28;20508;-66
2023/02/26 05:33:55;;;;;;;0.77;0.43;;;;;;;18.08;26.84;93720.84;5064105;28;20516;-62
2023/02/26 05:36:22;;;;;;;0.97;0.73;;;;;;;18.24;26.71;93732.31;5051398;28;20487;-62
2023/02/26 05:38:49;;;;;;;0.43;0.43;;;;;;;18.27;26.44;93734.31;5049898;28;20446;-65
2023/02/26 05:41:16;;;;;;;4.40;1.20;;;;;;;18.12;27.24;93732.31;5049636;28;20481;-63
2023/02/26 05:43:43;;;;;;;0.40;0.40;;;;;;;18.30;26.80;93725.72;5049504;28;20974;-65
2023/02/26 05:46:10;;;;;;;3.67;3.23;;;;;;;18.32;26.77;93726.13;5049546;28;20454;-62
2023/02/26 05:48:37;;;;;;;1.80;1.53;;;;;;;18.31;26.90;93719.28;5051191;28;21108;-63
2023/02/26 05:51:04;;;;;;;0.63;0.63;;;;;;;18.22;26.97;93742.50;5050613;28;20489;-65
2023/02/26 05:53:31;;;;;;;1.27;0.93;;;;;;;18.28;26.12;93741.19;5050990;28;20602;-66
2023/02/26 05:55:58;;;;;;;0.40;0.40;;;;;;;18.36;26.54;93745.59;5050076;28;20475;-64
2023/02/26 05:58:25;;;;;;;1.33;1.23;;;;;;;18.45;25.51;93727.72;5050504;28;20882;-66
2023/02/26 06:00:52;;;;;;;9.63;2.87;;;;;;;18.22;26.16;93737.19;5049320;28;20537;-62
2023/02/26 06:03:18;;;;;;;0.20;0.20;;;;;;;18.30;25.50;93744.28;5052030;28;20503;-63
2023/02/26 06:05:45;;;;;;;0.87;0.87;;;;;;;18.28;25.61;93729.78;5058958;28;20918;-62
2023/02/26 06:08:14;;;;;;;1.30;1.20;;;;;;;18.32;26.09;93744.69;5049906;28;20457;-66
2023/02/26 06:10:41;;;;;;;0.00;0.00;;;;;;;18.69;25.26;93745.50;5049039;28;20443;-65
2023/02/26 06:13:08;;;;;;;0.20;0.20;;;;;;;18.76;24.87;93735.88;5049168;28;20490;-65
2023/02/26 06:15:35;;;;;;;0.53;0.53;;;;;;;18.91;25.09;93727.22;5049059;28;20439;-64
2023/02/26 06:18:02;;;;;;;2.17;1.43;;;;;;;18.77;25.07;93734.78;5049194;28;20439;-64
2023/02/26 06:20:29;;;;;;;0.40;0.40;;;;;;;18.94;25.03;93757.66;5049963;28;20477;-61
2023/02/26 06:22:55;;;;;;;5.83;0.80;;;;;;;18.93;24.98;93756.09;5061414;28;20480;-64
2023/02/26 06:25:22;;;;;;;0.70;0.50;;;;;;;19.07;25.00;93753.84;5049491;28;20451;-63
2023/02/26 06:27:49;;;;;;;0.63;0.63;;;;;;;18.88;23.97;93751.03;5063543;28;20439;-66
2023/02/26 06:30:17;;;;;;;0.67;0.60;;;;;;;19.05;24.38;93743.56;5048872;28;20454;-63
2023/02/26 06:32:43;;;;;;;0.10;0.10;;;;;;;18.75;23.86;93744.16;5048896;28;20482;-64
2023/02/26 06:35:10;;;;;;;1.67;1.23;;;;;;;19.18;23.92;93747.75;5049534;28;20828;-65
2023/02/26 06:37:37;;;;;;;2.03;1.13;;;;;;;18.76;24.06;93757.09;5051121;28;20438;-65
2023/02/26 06:40:05;;;;;;;0.03;0.03;;;;;;;18.74;23.87;93780.53;5050669;28;20782;-67
2023/02/26 06:42:31;;;;;;;9.23;1.30;;;;;;;19.14;23.44;93757.47;5061891;28;20471;-65
2023/02/26 06:44:58;;;;;;;7.33;1.03;;;;;;;19.08;23.20;93747.44;5049484;28;20534;-64
2023/02/26 06:47:25;;;;;;;1.77;1.03;;;;;;;19.66;23.17;93738.88;5059767;28;20486;-62
2023/02/26 06:49:52;;;;;;;0.37;0.37;;;;;;;20.09;23.10;93754.00;5049305;28;20470;-62
2023/02/26 06:52:19;;;;;;;1.83;0.80;;;;;;;20.16;22.51;93748.91;5057897;28;20546;-65
2023/02/26 06:54:45;;;;;;;8.23;1.03;;;;;;;19.20;23.08;93795.97;5050426;28;20474;-62
2023/02/26 06:57:12;;;;;;;2.73;1.37;;;;;;;19.59;22.86;93740.56;5056067;28;20434;-63
2023/02/26 06:59:39;;;;;;;0.20;0.20;;;;;;;19.82;22.24;93739.66;5049132;28;20816;-65
2023/02/26 07:02:06;;;;;;;0.87;0.87;;;;;;;19.50;22.44;93753.22;5054785;28;20512;-66
2023/02/26 07:04:32;;;;;;;1.70;1.07;;;;;;;19.53;22.67;93715.31;5048795;28;20445;-64
2023/02/26 07:06:59;;;;;;;1.23;1.03;;;;;;;20.12;22.48;93716.91;5052757;28;21117;-65
2023/02/26 07:09:26;;;;;;;0.47;0.47;;;;;;;19.77;22.31;93739.13;5048770;28;20787;-62
2023/02/26 07:11:53;;;;;;;0.60;0.60;;;;;;;20.11;22.75;93733.16;5050492;28;20438;-64
2023/02/26 07:14:20;;;;;;;0.33;0.33;;;;;;;19.75;22.43;93749.34;5049016;28;20439;-62
2023/02/26 07:16:47;;;;;;;0.40;0.37;;;;;;;20.26;22.07;93736.97;5049040;28;20439;-65
2023/02/26 07:19:14;;;;;;;0.33;0.33;;;;;;;20.08;22.03;93715.25;5048813;28;20485;-61
2023/02/26 07:21:42;;;;;;;2.20;1.20;;;;;;;20.14;22.39;93732.50;5056034;28;20968;-64
2023/02/26 07:24:09;;;;;;;0.83;0.83;;;;;;;20.23;21.71;93706.53;5052410;28;20453;-64
2023/02/26 07:26:38;;;;;;;0.40;0.40;;;;;;;20.74;21.93;93710.78;5050795;28;20968;-64
2023/02/26 07:29:05;;;;;;;0.23;0.17;;;;;;;20.39;21.85;93733.13;5048379;28;20447;-63
2023/02/26 07:31:31;;;;;;;0.23;0.23;;;;;;;20.12;21.80;93737.41;5055018;28;20442;-62
2023/02/26 07:33:58;;;;;;;0.57;0.57;;;;;;;19.53;22.22;93749.88;5054542;28;20477;-63
2023/02/26 07:36:25;;;;;;;0.90;0.77;;;;;;;19.87;22.34;93730.69;5055005;28;20666;-62
2023/02/26 07:38:53;;;;;;;0.27;0.27;;;;;;;20.17;21.81;93734.50;5054449;28;20466;-63
2023/02/26 07:41:19;;;;;;;0.23;0.23;;;;;;;19.87;21.88;93751.94;5053636;28;20487;-62
2023/02/26 07:43:46;;;;;;;0.20;0.20;;;;;;;20.22;21.39;93715.63;5052902;28;20445;-62
2023/02/26 07:46:13;;;;;;;1.83;1.73;;;;;;;20.03;21.84;93772.13;5051684;28;20926;-62
2023/02/26 07:48:40;;;;;;;0.63;0.63;;;;;;;19.52;21.84;93751.00;5052094;28;20463;-61
2023/02/26 07:51:07;;;;;;;0.30;0.30;;;;;;;20.43;21.69;93734.78;5050455;28;20508;-64
2023/02/26 07:53:34;;;;;;;1.13;0.80;;;;;;;20.43;21.57;93745.41;5051749;28;20540;-65
2023/02/26 07:56:01;;;;;;;1.03;0.93;;;;;;;19.89;21.32;93744.41;5049453;28;20976;-64
2023/02/26 07:58:28;;;;;;;0.93;0.57;;;;;;;20.46;21.37;93720.75;5050912;28;20439;-66
2023/02/26 08:00:57;;;;;;;0.53;0.53;;;;;;;20.88;20.94;93745.69;5056113;28;20883;-64
2023/02/26 08:03:24;;;;;;;1.10;1.10;;;;;;;19.56;21.68;93751.88;5050269;28;21226;-64
2023/02/26 08:05:50;;;;;;;0.17;0.17;;;;;;;20.25;21.42;93765.50;5047619;28;21019;-65
2023/02/26 08:08:17;;;;;;;0.00;0.00;;;;;;;20.60;21.07;93749.59;5049211;28;20470;-65
2023/02/26 08:10:44;;;;;;;1.20;1.10;;;;;;;20.86;20.53;93747.16;5050462;28;20532;-63
2023/02/26 08:13:11;;;;;;;1.43;1.10;;;;;;;21.20;20.38;93759.75;5049959;28;20506;-64
2023/02/26 08:15:37;;;;;;;1.37;0.93;;;;;;;20.89;20.37;93725.94;5047849;28;20447;-63
2023/02/26 08:18:04;;;;;;;0.20;0.20;;;;;;;21.51;20.58;93753.53;5047371;28;20439;-64
2023/02/26 08:20:31;;;;;;;2.10;1.73;;;;;;;20.93;20.27;93734.75;5047643;28;20493;-63
2023/02/26 08:22:58;;;;;;;0.80;0.80;;;;;;;20.54;20.75;93743.78;5057090;28;20945;-60
2023/02/26 08:25:25;;;;;;;2.83;1.30;;;;;;;20.98;20.28;93734.50;5051439;28;20450;-65
2023/02/26 08:27:52;;;;;;;0.50;0.50;;;;;;;20.60;20.62;93750.34;5065692;28;20438;-60
2023/02/26 08:30:19;;;;;;;0.10;0.10;;;;;;;20.47;21.04;93762.25;5051115;28;20457;-63
2023/02/26 08:32:46;;;;;;;0.10;0.10;;;;;;;20.67;20.91;93774.50;5061171;28;20477;-62
2023/02/26 08:35:13;;;;;;;0.87;0.73;;;;;;;21.33;20.28;93745.16;5051581;28;20442;-65
2023/02/26 08:37:39;;;;;;;6.90;1.90;;;;;;;21.52;19.69;93765.72;5058627;28;20965;-63
2023/02/26 08:40:10;;;;;;;0.20;0.20;;;;;;;21.63;19.90;93782.69;5060006;28;20442;-66
2023/02/26 08:42:41;;;;;;;5.50;1.90;;;;;;;20.63;20.84;93794.94;5057762;28;20438;-66
2023/02/26 08:45:08;;;;;;;0.40;0.40;;;;;;;20.99;20.21;93764.56;5061540;28;20530;-63
2023/02/26 08:47:40;;;;;;;0.43;0.43;;;;;;;20.70;20.45;93765.03;5064326;28;20450;-62
2023/02/26 08:50:23;;;;;;;2.43;1.23;;;;;;;21.29;20.24;93780.84;5051937;28;20446;-65
2023/02/26 08:52:51;;;;;;;0.00;0.00;;;;;;;21.77;19.93;93764.34;5061004;28;20882;-65
2023/02/26 08:55:20;;;;;;;0.40;0.40;;;;;;;21.84;19.57;93777.81;5051404;28;20454;-63
2023/02/26 08:57:47;;;;;;;0.20;0.20;;;;;;;21.65;19.56;93775.13;5060345;28;20509;-62
2023/02/26 09:00:18;;;;;;;1.17;0.87;;;;;;;22.24;19.75;93762.19;5051080;28;20557;-63
2023/02/26 09:02:45;;;;;;;0.63;0.63;;;;;;;22.15;19.07;93769.63;5058498;28;20283;-64
2023/02/26 09:05:12;;;;;;;0.10;0.10;;;;;;;22.52;19.39;93769.88;5051627;28;20435;-65
2023/02/26 09:07:42;;;;;;;2.67;2.13;;;;;;;22.71;19.64;93757.25;5057363;28;20451;-64
2023/02/26 09:10:10;;;;;;;0.10;0.10;;;;;;;21.87;19.15;93759.22;5052519;28;20865;-66
2023/02/26 09:12:37;;;;;;;8.90;1.60;;;;;;;22.48;18.38;93763.72;5055688;28;20220;-65
2023/02/26 09:15:05;;;;;;;0.43;0.43;;;;;;;22.33;19.11;93768.06;5052111;28;20587;-64
2023/02/26 09:17:32;;;;;;;0.40;0.40;;;;;;;22.71;18.50;93777.84;5052915;28;20216;-63
2023/02/26 09:20:00;;;;;;;3.10;1.60;;;;;;;23.23;19.02;93748.44;5051906;28;20240;-63
2023/02/26 09:22:27;;;;;;;0.73;0.60;;;;;;;23.21;18.20;93749.97;5052552;28;20733;-66
2023/02/26 09:24:54;;;;;;;0.90;0.90;;;;;;;22.01;18.57;93742.69;5051895;28;20226;-64
2023/02/26 09:27:21;;;;;;;4.87;0.93;;;;;;;23.14;18.18;93743.38;5057559;28;20216;-65
2023/02/26 09:29:47;;;;;;;1.07;0.97;;;;;;;22.35;18.67;93744.44;5057244;28;20242;-65
2023/02/26 09:32:14;;;;;;;3.90;2.03;;;;;;;21.47;18.96;93750.00;5062728;28;20522;-64
2023/02/26 09:34:41;;;;;;;1.03;0.63;;;;;;;22.13;18.66;93753.22;5050871;28;20289;-67
2023/02/26 09:37:08;;;;;;;1.03;0.93;;;;;;;22.12;18.84;93731.09;5055040;28;20269;-63
2023/02/26 09:39:35;;;;;;;5.33;2.00;;;;;;;22.92;17.98;93736.19;5062803;28;20443;-64
2023/02/26 09:42:48;;;;;;;0.40;0.40;;;;;;;22.75;17.75;93762.66;5056727;28;20467;-66
2023/02/26 09:45:25;;;;;;;0.43;0.43;;;;;;;23.82;17.76;93759.16;5060003;28;20202;-66
2023/02/26 09:47:53;;;;;;;2.33;1.30;;;;;;;23.68;17.25;93756.34;5063231;28;21030;-64
2023/02/26 09:50:25;;;;;;;1.03;0.93;;;;;;;22.68;17.53;93768.63;5050041;28;20216;-66
2023/02/26 09:53:19;;;;;;;0.70;0.70;;;;;;;22.82;18.21;93752.06;5057793;28;20549;-64
2023/02/26 09:55:49;;;;;;;5.03;1.63;;;;;;;22.95;18.80;93750.75;5053422;28;20202;-65
2023/02/26 09:58:25;;;;;;;0.53;0.53;;;;;;;22.77;17.91;93750.47;5063626;28;20195;-65
2023/02/26 10:01:07;;;;;;;0.53;0.40;;;;;;;22.82;18.16;93757.41;5053707;28;20202;-69
2023/02/26 10:03:51;;;;;;;0.50;0.50;;;;;;;22.69;18.50;93743.50;5054371;28;20201;-64
2023/02/26 10:06:58;;;;;;;0.10;0.10;;;;;;;23.00;18.17;93721.81;5049613;28;20200;-61
2023/02/26 10:09:45;;;;;;;2.30;1.53;;;;;;;22.83;18.63;93738.34;5066908;28;20599;-64
2023/02/26 10:12:18;;;;;;;3.70;2.17;;;;;;;22.60;18.41;93772.34;5049907;28;20204;-63
2023/02/26 10:14:53;;;;;;;0.47;0.47;;;;;;;23.34;18.12;93751.31;5049873;28;20323;-64
2023/02/26 10:17:30;;;;;;;0.73;0.73;;;;;;;23.62;18.22;93749.75;5053949;28;20533;-64
2023/02/26 10:20:05;;;;;;;3.33;2.87;;;;;;;24.64;18.51;93742.00;5055249;28;20267;-64
2023/02/26 10:22:38;;;;;;;1.27;1.03;;;;;;;24.35;17.81;93735.63;5061734;28;20631;-64
2023/02/26 10:25:09;;;;;;;1.70;1.20;;;;;;;23.81;17.23;93764.88;5058106;28;20670;-64
2023/02/26 10:27:43;;;;;;;0.67;0.67;;;;;;;23.43;17.48;93733.09;5060070;28;20649;-66
2023/02/26 10:30:40;;;;;;;6.43;3.47;;;;;;;23.79;17.32;93751.09;5059881;28;20548;-64
2023/02/26 10:33:37;;;;;;;1.13;1.03;;;;;;;23.04;17.95;93730.66;5063373;28;20217;-64
2023/02/26 10:36:11;;;;;;;0.63;0.63;;;;;;;22.90;18.12;93754.47;5057809;28;20635;-67
2023/02/26 10:38:39;;;;;;;0.20;0.20;;;;;;;22.84;17.42;93734.56;5056475;28;20196;-65
2023/02/26 10:41:14;;;;;;;0.40;0.40;;;;;;;23.09;18.57;93708.97;5049451;28;20618;-66
2023/02/26 10:43:46;;;;;;;0.87;0.73;;;;;;;23.22;18.24;93701.50;5052374;28;20204;-65
2023/02/26 10:46:19;;;;;;;0.50;0.50;;;;;;;22.99;18.32;93687.47;5049181;28;20196;-67
2023/02/26 10:49:02;;;;;;;0.70;0.40;;;;;;;23.05;17.65;93692.13;5050194;28;20552;-68
2023/02/26 10:51:37;;;;;;;0.10;0.10;;;;;;;22.95;17.63;93686.63;5049439;28;20206;-64
2023/02/26 10:54:29;;;;;;;1.30;1.20;;;;;;;23.04;17.82;93728.00;5062062;28;20659;-70
2023/02/26 10:56:55;;;;;;;0.20;0.20;;;;;;;23.22;17.01;93696.16;5049262;28;20319;-63
2023/02/26 10:59:23;;;;;;;0.20;0.20;;;;;;;23.27;17.47;93685.13;5060391;28;20291;-67
2023/02/26 11:01:51;;;;;;;0.20;0.20;;;;;;;23.89;16.95;93686.22;5048048;28;20188;-66
2023/02/26 11:04:24;;;;;;;0.57;0.57;;;;;;;24.22;16.66;93688.88;5060636;28;20207;-71
2023/02/26 11:06:58;;;;;;;0.37;0.37;;;;;;;24.38;17.57;93686.69;5051283;28;20188;-69
2023/02/26 11:09:36;;;;;;;0.30;0.30;;;;;;;22.37;18.46;93678.13;5057455;28;20291;-67
2023/02/26 11:12:13;;;;;;;0.30;0.30;;;;;;;22.78;18.34;93698.59;5048966;28;20604;-67
2023/02/26 11:14:45;;;;;;;10.17;1.90;;;;;;;22.29;18.93;93692.50;5057750;28;20251;-70
2023/02/26 11:17:28;;;;;;;0.60;0.60;;;;;;;23.37;18.21;93691.78;5048991;28;20200;-66
2023/02/26 11:19:59;;;;;;;2.40;0.77;;;;;;;23.26;18.23;93693.53;5051339;28;20235;-66
2023/02/26 11:22:31;;;;;;;0.37;0.37;;;;;;;23.38;19.31;93666.56;5050311;28;20200;-69
2023/02/26 11:24:58;;;;;;;1.50;1.40;;;;;;;23.44;19.12;93681.16;5049389;28;20196;-71
2023/02/26 11:27:35;;;;;;;0.27;0.27;;;;;;;23.74;18.50;93690.66;5049457;28;20219;-68
2023/02/26 11:30:10;;;;;;;1.23;1.13;;;;;;;23.82;18.27;93696.84;5048885;28;20648;-69
2023/02/26 11:32:38;;;;;;;0.23;0.23;;;;;;;23.30;18.73;93713.06;5050344;28;20205;-72
2023/02/26 11:35:09;;;;;;;1.70;1.60;;;;;;;23.53;18.34;93684.31;5057010;28;20236;-67
2023/02/26 11:37:40;;;;;;;1.50;0.83;;;;;;;23.30;18.36;93694.38;5057819;28;20275;-69
2023/02/26 11:40:21;;;;;;;1.00;0.80;;;;;;;22.38;18.70;93717.03;5059040;28;20678;-67
2023/02/26 11:42:59;;;;;;;0.63;0.63;;;;;;;22.93;18.33;93700.34;5065992;28;20204;-72
2023/02/26 11:45:27;;;;;;;0.47;0.47;;;;;;;23.10;18.02;93699.81;5050432;28;20188;-67
2023/02/26 11:48:05;;;;;;;0.17;0.17;;;;;;;23.47;17.72;93702.59;5047553;28;20224;-67
2023/02/26 11:50:42;;;;;;;0.50;0.43;;;;;;;23.27;17.62;93713.75;5047168;28;21093;-67
2023/02/26 11:53:46;;;;;;;0.23;0.17;;;;;;;23.41;18.40;93709.38;5049918;28;20615;-69
2023/02/26 11:56:19;;;;;;;16.77;1.87;;;;;;;23.55;19.34;93722.16;5044955;28;20726;-68
2023/02/26 11:58:50;;;;;;;1.60;0.93;;;;;;;23.57;18.55;93733.25;5051376;28;20192;-68